Terminal Aerodrome Forecast
Issued by NWS Atlanta, GA

Home | Current Version | Previous Version | Text Only | Print | Product List | Glossary On
Versions: 1 2 3 4 5 6 7 8 9 10 11 12 13 14 15 16 17 18 19 20 21 22 23 24 25 26 27 28 29 30 31 32 33 34 35 36 37 38 39 40 41
000
FTUS42 KFFC 211952 AAC
TAFATL
TAF AMD
KATL 211952Z 2120/2224 03010KT P6SM VCSH FEW010 SCT030 OVC100
     FM220000 20005KT 6SM BR BKN008 OVC012
     FM220200 17007KT 4SM BR VCSH OVC004
     FM220900 20010KT 3SM TSRA OVC007CB
     FM221500 20010KT P6SM VCSH BKN010 PROB30 2219/2223 3SM TSRA
      BKN020CB=

USA.gov is the U.S. government's official web portal to all federal, state and local government web resources and services.